createdAt,value
2022-12-01T00:03:50.541Z,2.35
2022-12-01T00:09:18.020Z,2.36
2022-12-01T00:14:22.953Z,2.44
2022-12-01T00:19:27.474Z,2.51
2022-12-01T00:24:30.614Z,2.53
2022-12-01T00:29:33.507Z,2.48
2022-12-01T00:34:38.043Z,2.39
2022-12-01T00:39:40.997Z,2.29
2022-12-01T00:44:44.864Z,2.25
2022-12-01T00:49:48.407Z,2.23
2022-12-01T00:54:51.606Z,2.19
2022-12-01T00:59:54.587Z,2.17
2022-12-01T01:04:57.577Z,2.13
2022-12-01T01:10:00.555Z,2.07
2022-12-01T01:15:04.648Z,2.03
2022-12-01T01:20:08.596Z,2.00
2022-12-01T01:25:11.620Z,2.02
2022-12-01T01:30:15.722Z,2.09
2022-12-01T01:35:18.639Z,2.13
2022-12-01T01:40:21.804Z,2.10
2022-12-01T01:45:29.907Z,2.15
2022-12-01T01:50:32.836Z,2.22
2022-12-01T01:55:36.950Z,2.25
2022-12-01T02:00:43.799Z,2.28
2022-12-01T02:05:47.014Z,2.34
2022-12-01T02:11:28.147Z,2.40
2022-12-01T02:17:20.936Z,2.49
2022-12-01T02:23:14.780Z,2.57
2022-12-01T02:28:44.938Z,2.51
2022-12-01T02:34:18.113Z,2.43
2022-12-01T02:39:42.618Z,2.43
2022-12-01T02:44:47.770Z,2.47
2022-12-01T02:49:53.020Z,2.44
2022-12-01T02:54:57.304Z,2.37
2022-12-01T03:00:01.311Z,2.26
2022-12-01T03:05:12.777Z,2.18
2022-12-01T03:10:34.063Z,2.16
2022-12-01T03:15:53.524Z,2.22
2022-12-01T03:21:10.071Z,2.18
2022-12-01T03:26:21.008Z,2.08
2022-12-01T03:31:33.052Z,2.04
2022-12-01T03:36:56.708Z,2.04
2022-12-01T03:42:33.009Z,2.01
2022-12-01T03:47:37.886Z,2.01
2022-12-01T03:53:03.581Z,1.99
2022-12-01T03:58:17.210Z,1.96
2022-12-01T04:03:25.767Z,1.94
2022-12-01T04:08:30.869Z,1.95
2022-12-01T04:13:33.872Z,1.97
2022-12-01T04:18:36.876Z,1.95
2022-12-01T04:23:58.452Z,1.92
2022-12-01T04:29:07.685Z,1.89
2022-12-01T04:34:11.572Z,1.88
2022-12-01T04:39:14.519Z,1.88
2022-12-01T04:44:17.780Z,1.82
2022-12-01T04:49:21.969Z,1.81
2022-12-01T04:54:26.748Z,1.80
2022-12-01T04:59:29.797Z,1.83
2022-12-01T05:04:34.219Z,1.82
2022-12-01T05:09:37.298Z,1.79
2022-12-01T05:14:40.153Z,1.79
2022-12-01T05:20:01.630Z,1.81
2022-12-01T05:25:04.905Z,1.79
2022-12-01T05:30:08.869Z,1.80
2022-12-01T05:35:11.833Z,1.84
2022-12-01T05:40:14.757Z,1.86
2022-12-01T05:45:17.755Z,1.89
2022-12-01T05:50:20.702Z,1.96
2022-12-01T05:55:23.737Z,1.98
2022-12-01T06:00:26.936Z,1.95
2022-12-01T06:05:29.996Z,1.93
2022-12-01T06:10:33.142Z,1.94
2022-12-01T06:15:36.139Z,2.01
2022-12-01T06:20:39.299Z,2.12
2022-12-01T06:25:42.250Z,2.12
2022-12-01T06:30:45.994Z,2.09
2022-12-01T06:35:48.891Z,2.06
2022-12-01T06:40:51.860Z,2.05
2022-12-01T06:46:00.801Z,2.06
2022-12-01T06:51:04.610Z,2.12
2022-12-01T06:56:07.890Z,2.21
2022-12-01T07:01:13.121Z,2.41
2022-12-01T07:06:17.647Z,2.61
2022-12-01T07:11:20.585Z,2.65
2022-12-01T07:16:23.658Z,2.21
2022-12-01T07:21:26.723Z,2.02
2022-12-01T07:26:29.636Z,2.00
2022-12-01T07:31:33.144Z,2.01
2022-12-01T07:36:36.042Z,2.10
2022-12-01T07:41:39.037Z,2.11
2022-12-01T07:46:42.107Z,2.11
2022-12-01T07:51:45.087Z,2.12
2022-12-01T07:56:48.034Z,2.07
2022-12-01T08:01:51.132Z,2.12
2022-12-01T08:06:54.358Z,2.14
2022-12-01T08:11:57.354Z,2.20
2022-12-01T08:17:00.431Z,2.25
2022-12-01T08:22:03.624Z,2.28
2022-12-01T08:27:06.635Z,2.26
2022-12-01T08:32:09.557Z,2.26
2022-12-01T08:37:12.471Z,2.26
2022-12-01T08:42:15.711Z,2.27
2022-12-01T08:47:19.295Z,2.28
2022-12-01T08:52:22.370Z,2.29
2022-12-01T08:57:25.388Z,2.28
2022-12-01T09:02:28.531Z,2.29
2022-12-01T09:07:33.360Z,2.27
2022-12-01T09:12:36.429Z,2.27
2022-12-01T09:17:39.385Z,2.28
2022-12-01T09:22:42.422Z,2.33
2022-12-01T09:27:45.608Z,2.38
2022-12-01T09:32:48.669Z,2.31
2022-12-01T09:37:51.777Z,2.33
2022-12-01T09:42:55.764Z,2.40
2022-12-01T09:48:03.254Z,2.49
2022-12-01T09:53:19.511Z,2.58
2022-12-01T09:58:30.888Z,2.65
2022-12-01T10:03:48.809Z,2.66
2022-12-01T10:09:18.376Z,2.70
2022-12-01T10:14:22.430Z,2.81
2022-12-01T10:19:37.872Z,2.87
2022-12-01T10:25:05.839Z,2.90
2022-12-01T10:30:10.578Z,2.95
2022-12-01T10:35:18.538Z,2.89
2022-12-01T10:40:23.753Z,2.83
2022-12-01T10:45:31.789Z,2.86
2022-12-01T10:50:35.986Z,2.88
2022-12-01T10:55:44.859Z,2.93
2022-12-01T11:01:04.395Z,3.00
2022-12-01T11:06:08.834Z,2.95
2022-12-01T11:11:40.707Z,2.94
2022-12-01T11:16:48.156Z,2.96
2022-12-01T11:21:57.746Z,2.89
2022-12-01T11:27:01.338Z,2.94
2022-12-01T11:32:20.402Z,2.96
2022-12-01T11:37:50.546Z,2.93
2022-12-01T11:43:06.251Z,2.95
2022-12-01T11:48:12.588Z,2.98
2022-12-01T11:53:43.956Z,2.96
2022-12-01T11:58:52.468Z,2.88
2022-12-01T12:04:14.163Z,2.87
2022-12-01T12:09:17.641Z,2.92
2022-12-01T12:15:19.960Z,2.93
2022-12-01T12:20:47.500Z,2.92
2022-12-01T12:26:18.485Z,2.91
2022-12-01T12:31:40.218Z,2.92
2022-12-01T12:37:07.460Z,2.88
2022-12-01T12:42:29.908Z,2.80
2022-12-01T12:47:51.958Z,2.75
2022-12-01T12:53:09.733Z,2.73
2022-12-01T12:58:36.498Z,2.68
2022-12-01T13:04:08.162Z,2.66
2022-12-01T13:09:46.714Z,2.60
2022-12-01T13:15:01.612Z,2.58
2022-12-01T13:20:07.346Z,2.56
2022-12-01T13:25:22.948Z,2.54
2022-12-01T13:30:27.291Z,2.51
2022-12-01T13:35:36.173Z,2.52
2022-12-01T13:40:39.743Z,2.53
2022-12-01T13:45:42.847Z,2.53
2022-12-01T13:50:48.297Z,2.46
2022-12-01T13:56:03.288Z,2.41
2022-12-01T14:01:22.715Z,2.44
2022-12-01T14:06:49.669Z,2.43
2022-12-01T14:12:11.203Z,2.43
2022-12-01T14:17:37.970Z,2.43
2022-12-01T14:22:46.173Z,2.41
2022-12-01T14:27:56.787Z,2.39
2022-12-01T14:34:04.152Z,2.40
2022-12-01T14:39:18.967Z,2.39
2022-12-01T14:44:55.031Z,2.36
2022-12-01T14:50:28.463Z,2.36
2022-12-01T14:55:42.301Z,2.30
2022-12-01T15:01:13.433Z,2.24
2022-12-01T15:06:20.178Z,2.19
2022-12-01T15:11:26.939Z,2.16
2022-12-01T15:16:32.425Z,2.17
2022-12-01T15:21:38.183Z,2.17
2022-12-01T15:26:49.602Z,2.18
2022-12-01T15:31:59.919Z,2.21
2022-12-01T15:37:13.592Z,2.23
2022-12-01T15:42:27.807Z,2.17
2022-12-01T15:47:47.151Z,2.10
2022-12-01T15:52:50.468Z,2.06
2022-12-01T15:57:54.710Z,2.04
2022-12-01T16:03:00.099Z,2.00
2022-12-01T16:08:27.980Z,2.02
2022-12-01T16:13:48.100Z,1.99
2022-12-01T16:18:59.654Z,1.90
2022-12-01T16:24:06.134Z,1.86
2022-12-01T16:29:22.802Z,1.79
2022-12-01T16:34:45.355Z,1.77
2022-12-01T16:39:50.637Z,1.72
2022-12-01T16:44:53.868Z,1.68
2022-12-01T16:49:57.054Z,1.61
2022-12-01T16:55:00.106Z,1.55
2022-12-01T17:00:03.695Z,1.54
2022-12-01T17:05:07.294Z,1.42
2022-12-01T17:10:11.350Z,1.29
2022-12-01T17:15:14.408Z,1.32
2022-12-01T17:20:17.564Z,1.37
2022-12-01T17:25:20.494Z,1.43
2022-12-01T17:30:24.024Z,1.46
2022-12-01T17:35:27.006Z,1.46
2022-12-01T17:40:29.923Z,1.42
2022-12-01T17:45:32.924Z,1.41
2022-12-01T17:50:35.905Z,1.39
2022-12-01T17:55:41.929Z,1.34
2022-12-01T18:00:44.908Z,1.37
2022-12-01T18:06:02.355Z,1.42
2022-12-01T19:37:23.646Z,1.49
2022-12-01T19:42:26.564Z,1.22
2022-12-01T19:47:34.362Z,1.08
2022-12-01T19:52:37.347Z,1.03
2022-12-01T19:57:40.540Z,0.94
2022-12-01T20:02:43.550Z,0.88
2022-12-01T20:07:47.864Z,0.88
2022-12-01T20:12:51.088Z,0.96
2022-12-01T20:17:54.087Z,1.05
2022-12-01T20:22:57.878Z,1.12
2022-12-01T20:28:01.454Z,1.16
2022-12-01T20:33:04.391Z,1.18
2022-12-01T20:38:07.325Z,1.24
2022-12-01T20:43:10.339Z,1.22
2022-12-01T20:48:13.797Z,1.21
2022-12-01T20:53:16.741Z,1.17
2022-12-01T20:58:19.743Z,1.14
2022-12-01T21:03:22.656Z,1.08
2022-12-01T21:08:25.634Z,1.03
2022-12-01T21:13:42.188Z,0.94
2022-12-01T21:18:52.935Z,0.80
2022-12-01T21:24:08.232Z,0.63
2022-12-01T21:29:20.764Z,0.44
2022-12-01T21:34:26.887Z,0.43
2022-12-01T21:39:30.534Z,0.47
2022-12-01T21:44:37.774Z,0.48
2022-12-01T21:49:41.013Z,0.39
2022-12-01T21:54:44.044Z,0.35
2022-12-01T21:59:48.097Z,0.34
2022-12-01T22:04:51.171Z,0.36
2022-12-01T22:09:54.408Z,0.37
2022-12-01T22:15:01.620Z,0.42
2022-12-01T22:20:22.546Z,0.50
2022-12-01T22:25:27.684Z,0.51
2022-12-01T22:30:30.583Z,0.61
2022-12-01T22:35:44.974Z,0.63
2022-12-01T22:41:00.377Z,0.67
2022-12-01T22:46:17.627Z,0.57
2022-12-01T22:51:20.490Z,0.47
2022-12-01T22:56:34.000Z,0.25
2022-12-01T23:01:43.645Z,0.01
2022-12-01T23:06:57.189Z,-0.05
2022-12-01T23:12:28.733Z,0.01
2022-12-01T23:17:35.603Z,0.12
2022-12-01T23:22:39.035Z,0.21
2022-12-01T23:27:43.281Z,0.20
2022-12-01T23:33:13.438Z,0.17
2022-12-01T23:38:25.227Z,0.15
2022-12-01T23:43:34.807Z,0.02
2022-12-01T23:48:47.913Z,-0.31
2022-12-01T23:53:53.058Z,-0.52
2022-12-01T23:59:00.357Z,-0.60
